Louisville, Georgia
Current Conditions -  °F | °C
As of 4:15 AM on Thursday 18 Dec 2014 (Local Time) from KOKZ Reporting Station
Clear Clear  
Wind Chill:   Ceiling: Unl
Heat Index:   Visibility: 7mi
Dew Point:   Wind: 5mph
Humidity: 100%   Direction: 240°WSW
Pressure: 30.13"   Gusts: NA
Location:  33°N, 82.41°W
Report Text: KOKZ 180915Z AUTO 24004KT 7SM CLR 02/02 A3013 RMK AO2 T00210021
Loading
Personal Weather Stations






























Interactive Weather Map New forecast layout! Learn more

10-Day Weather Forecast

Advertisements
Track Severe Weather on mobile